sensor_id;sensor_type;location;lat;lon;timestamp;P1;durP1;ratioP1;P2;durP2;ratioP2
8831;SDS011;4452;50.756;4.472;2023-07-31T00:01:21;22.20;;;5.50;;
8831;SDS011;4452;50.756;4.472;2023-07-31T00:03:47;18.45;;;5.20;;
8831;SDS011;4452;50.756;4.472;2023-07-31T00:06:13;16.17;;;5.50;;
8831;SDS011;4452;50.756;4.472;2023-07-31T00:08:38;19.13;;;5.53;;
8831;SDS011;4452;50.756;4.472;2023-07-31T00:11:04;15.93;;;5.05;;
8831;SDS011;4452;50.756;4.472;2023-07-31T00:13:29;22.88;;;5.13;;
8831;SDS011;4452;50.756;4.472;2023-07-31T00:15:55;9.40;;;3.97;;
8831;SDS011;4452;50.756;4.472;2023-07-31T00:18:21;14.65;;;5.70;;
8831;SDS011;4452;50.756;4.472;2023-07-31T00:20:46;12.85;;;4.50;;
8831;SDS011;4452;50.756;4.472;2023-07-31T00:23:12;11.77;;;4.38;;
8831;SDS011;4452;50.756;4.472;2023-07-31T00:25:38;21.00;;;5.65;;
8831;SDS011;4452;50.756;4.472;2023-07-31T00:28:04;13.90;;;5.30;;
8831;SDS011;4452;50.756;4.472;2023-07-31T00:30:29;15.43;;;4.70;;
8831;SDS011;4452;50.756;4.472;2023-07-31T00:32:55;13.68;;;4.00;;
8831;SDS011;4452;50.756;4.472;2023-07-31T00:35:21;11.30;;;4.60;;
8831;SDS011;4452;50.756;4.472;2023-07-31T00:37:46;8.13;;;4.90;;
8831;SDS011;4452;50.756;4.472;2023-07-31T00:40:12;15.25;;;5.20;;
8831;SDS011;4452;50.756;4.472;2023-07-31T00:42:39;12.23;;;4.63;;
8831;SDS011;4452;50.756;4.472;2023-07-31T00:45:04;17.08;;;4.43;;
8831;SDS011;4452;50.756;4.472;2023-07-31T00:47:30;31.27;;;5.70;;
8831;SDS011;4452;50.756;4.472;2023-07-31T00:49:56;18.73;;;5.15;;
8831;SDS011;4452;50.756;4.472;2023-07-31T00:52:22;14.75;;;4.95;;
8831;SDS011;4452;50.756;4.472;2023-07-31T00:54:48;19.90;;;5.38;;
8831;SDS011;4452;50.756;4.472;2023-07-31T00:57:15;12.45;;;5.00;;
8831;SDS011;4452;50.756;4.472;2023-07-31T00:59:41;16.88;;;5.00;;
8831;SDS011;4452;50.756;4.472;2023-07-31T01:02:06;12.52;;;4.65;;
8831;SDS011;4452;50.756;4.472;2023-07-31T01:04:32;14.25;;;5.30;;
8831;SDS011;4452;50.756;4.472;2023-07-31T01:09:49;15.45;;;4.43;;
8831;SDS011;4452;50.756;4.472;2023-07-31T01:12:29;18.92;;;4.72;;
8831;SDS011;4452;50.756;4.472;2023-07-31T01:15:06;12.65;;;5.72;;
8831;SDS011;4452;50.756;4.472;2023-07-31T01:17:36;11.27;;;4.45;;
8831;SDS011;4452;50.756;4.472;2023-07-31T01:20:03;13.60;;;4.78;;
8831;SDS011;4452;50.756;4.472;2023-07-31T01:22:54;17.55;;;5.57;;
8831;SDS011;4452;50.756;4.472;2023-07-31T01:31:16;18.65;;;5.88;;
8831;SDS011;4452;50.756;4.472;2023-07-31T01:33:45;15.15;;;4.70;;
8831;SDS011;4452;50.756;4.472;2023-07-31T01:36:11;16.55;;;5.68;;
8831;SDS011;4452;50.756;4.472;2023-07-31T01:38:37;16.70;;;5.72;;
8831;SDS011;4452;50.756;4.472;2023-07-31T01:41:03;14.82;;;5.22;;
8831;SDS011;4452;50.756;4.472;2023-07-31T01:43:28;19.60;;;6.03;;
8831;SDS011;4452;50.756;4.472;2023-07-31T01:45:54;13.82;;;5.50;;
8831;SDS011;4452;50.756;4.472;2023-07-31T01:48:20;12.98;;;5.13;;
8831;SDS011;4452;50.756;4.472;2023-07-31T01:50:45;15.63;;;5.47;;
8831;SDS011;4452;50.756;4.472;2023-07-31T01:53:11;11.23;;;5.35;;
8831;SDS011;4452;50.756;4.472;2023-07-31T01:55:38;19.15;;;6.10;;
8831;SDS011;4452;50.756;4.472;2023-07-31T01:58:04;15.70;;;5.53;;
8831;SDS011;4452;50.756;4.472;2023-07-31T02:00:29;12.07;;;5.22;;
8831;SDS011;4452;50.756;4.472;2023-07-31T02:02:55;17.70;;;5.75;;
8831;SDS011;4452;50.756;4.472;2023-07-31T02:05:20;13.43;;;5.28;;
8831;SDS011;4452;50.756;4.472;2023-07-31T02:07:46;9.30;;;5.22;;
8831;SDS011;4452;50.756;4.472;2023-07-31T02:10:12;15.52;;;6.28;;
8831;SDS011;4452;50.756;4.472;2023-07-31T02:12:38;17.35;;;6.18;;
8831;SDS011;4452;50.756;4.472;2023-07-31T02:15:04;18.27;;;6.22;;
8831;SDS011;4452;50.756;4.472;2023-07-31T02:17:29;13.02;;;6.20;;
8831;SDS011;4452;50.756;4.472;2023-07-31T02:19:55;14.05;;;5.30;;
8831;SDS011;4452;50.756;4.472;2023-07-31T02:22:21;12.75;;;5.20;;
8831;SDS011;4452;50.756;4.472;2023-07-31T02:24:46;13.90;;;5.63;;
8831;SDS011;4452;50.756;4.472;2023-07-31T02:27:12;8.50;;;5.38;;
8831;SDS011;4452;50.756;4.472;2023-07-31T02:29:38;12.13;;;5.25;;
8831;SDS011;4452;50.756;4.472;2023-07-31T02:32:03;10.38;;;4.20;;
8831;SDS011;4452;50.756;4.472;2023-07-31T02:34:29;10.90;;;4.68;;
8831;SDS011;4452;50.756;4.472;2023-07-31T02:36:55;10.65;;;4.30;;
8831;SDS011;4452;50.756;4.472;2023-07-31T02:39:21;15.18;;;5.30;;
8831;SDS011;4452;50.756;4.472;2023-07-31T02:41:46;17.23;;;5.25;;
8831;SDS011;4452;50.756;4.472;2023-07-31T02:44:12;12.27;;;4.95;;
8831;SDS011;4452;50.756;4.472;2023-07-31T02:46:39;10.02;;;5.45;;
8831;SDS011;4452;50.756;4.472;2023-07-31T02:49:05;19.27;;;6.07;;
8831;SDS011;4452;50.756;4.472;2023-07-31T02:51:31;11.40;;;4.85;;
8831;SDS011;4452;50.756;4.472;2023-07-31T02:53:56;6.82;;;3.70;;
8831;SDS011;4452;50.756;4.472;2023-07-31T02:56:22;13.68;;;4.95;;
8831;SDS011;4452;50.756;4.472;2023-07-31T02:58:47;10.50;;;4.72;;
8831;SDS011;4452;50.756;4.472;2023-07-31T03:01:13;18.02;;;5.10;;
8831;SDS011;4452;50.756;4.472;2023-07-31T03:03:40;8.25;;;3.80;;
8831;SDS011;4452;50.756;4.472;2023-07-31T03:06:06;8.65;;;4.50;;
8831;SDS011;4452;50.756;4.472;2023-07-31T03:08:32;9.77;;;4.47;;
8831;SDS011;4452;50.756;4.472;2023-07-31T03:10:57;10.40;;;4.47;;
8831;SDS011;4452;50.756;4.472;2023-07-31T03:13:23;8.20;;;4.38;;
8831;SDS011;4452;50.756;4.472;2023-07-31T03:15:49;12.70;;;5.05;;
8831;SDS011;4452;50.756;4.472;2023-07-31T03:18:15;14.57;;;4.30;;
8831;SDS011;4452;50.756;4.472;2023-07-31T03:20:43;10.40;;;5.25;;
8831;SDS011;4452;50.756;4.472;2023-07-31T03:23:09;12.35;;;5.13;;
8831;SDS011;4452;50.756;4.472;2023-07-31T03:25:35;11.18;;;4.68;;
8831;SDS011;4452;50.756;4.472;2023-07-31T03:28:00;12.20;;;4.80;;
8831;SDS011;4452;50.756;4.472;2023-07-31T03:30:26;7.45;;;4.07;;
8831;SDS011;4452;50.756;4.472;2023-07-31T03:32:52;13.25;;;4.57;;
8831;SDS011;4452;50.756;4.472;2023-07-31T03:35:17;8.75;;;4.20;;
8831;SDS011;4452;50.756;4.472;2023-07-31T03:37:43;10.48;;;4.45;;
8831;SDS011;4452;50.756;4.472;2023-07-31T03:40:09;9.68;;;4.18;;
8831;SDS011;4452;50.756;4.472;2023-07-31T03:42:35;7.07;;;3.92;;
8831;SDS011;4452;50.756;4.472;2023-07-31T03:45:00;10.20;;;4.28;;
8831;SDS011;4452;50.756;4.472;2023-07-31T03:47:26;15.35;;;4.50;;
8831;SDS011;4452;50.756;4.472;2023-07-31T03:49:52;8.32;;;4.05;;
8831;SDS011;4452;50.756;4.472;2023-07-31T03:52:17;7.65;;;4.88;;
8831;SDS011;4452;50.756;4.472;2023-07-31T03:54:43;12.85;;;4.18;;
8831;SDS011;4452;50.756;4.472;2023-07-31T03:57:11;14.38;;;4.80;;
8831;SDS011;4452;50.756;4.472;2023-07-31T03:59:37;10.15;;;5.00;;
8831;SDS011;4452;50.756;4.472;2023-07-31T04:02:05;8.05;;;4.05;;
8831;SDS011;4452;50.756;4.472;2023-07-31T04:04:31;13.80;;;4.25;;
8831;SDS011;4452;50.756;4.472;2023-07-31T04:06:57;11.88;;;4.65;;
8831;SDS011;4452;50.756;4.472;2023-07-31T04:09:22;11.40;;;4.57;;
8831;SDS011;4452;50.756;4.472;2023-07-31T04:11:48;12.40;;;4.25;;
8831;SDS011;4452;50.756;4.472;2023-07-31T04:14:13;14.45;;;5.28;;
8831;SDS011;4452;50.756;4.472;2023-07-31T04:16:39;9.48;;;4.25;;
8831;SDS011;4452;50.756;4.472;2023-07-31T04:19:05;9.50;;;4.22;;
8831;SDS011;4452;50.756;4.472;2023-07-31T04:21:30;8.27;;;3.75;;
8831;SDS011;4452;50.756;4.472;2023-07-31T04:23:56;6.18;;;3.67;;
8831;SDS011;4452;50.756;4.472;2023-07-31T04:26:23;12.20;;;4.13;;
8831;SDS011;4452;50.756;4.472;2023-07-31T04:28:49;11.38;;;4.50;;
8831;SDS011;4452;50.756;4.472;2023-07-31T04:31:15;16.48;;;5.18;;
8831;SDS011;4452;50.756;4.472;2023-07-31T04:33:41;8.15;;;4.32;;
8831;SDS011;4452;50.756;4.472;2023-07-31T04:36:06;8.52;;;3.75;;
8831;SDS011;4452;50.756;4.472;2023-07-31T04:38:32;14.50;;;4.07;;
8831;SDS011;4452;50.756;4.472;2023-07-31T04:40:58;7.35;;;4.25;;
8831;SDS011;4452;50.756;4.472;2023-07-31T04:43:23;9.70;;;4.55;;
8831;SDS011;4452;50.756;4.472;2023-07-31T04:45:49;11.82;;;4.63;;
8831;SDS011;4452;50.756;4.472;2023-07-31T04:48:15;8.18;;;4.05;;
8831;SDS011;4452;50.756;4.472;2023-07-31T04:50:42;13.85;;;4.13;;
8831;SDS011;4452;50.756;4.472;2023-07-31T04:53:07;10.18;;;4.38;;
8831;SDS011;4452;50.756;4.472;2023-07-31T04:55:33;10.23;;;4.55;;
8831;SDS011;4452;50.756;4.472;2023-07-31T04:57:59;8.27;;;4.07;;
8831;SDS011;4452;50.756;4.472;2023-07-31T05:00:24;13.23;;;4.40;;
8831;SDS011;4452;50.756;4.472;2023-07-31T05:02:50;12.27;;;4.15;;
8831;SDS011;4452;50.756;4.472;2023-07-31T05:05:16;4.05;;;3.20;;
8831;SDS011;4452;50.756;4.472;2023-07-31T05:07:41;5.80;;;3.65;;
8831;SDS011;4452;50.756;4.472;2023-07-31T05:10:07;10.70;;;4.22;;
8831;SDS011;4452;50.756;4.472;2023-07-31T05:12:33;9.75;;;4.15;;
8831;SDS011;4452;50.756;4.472;2023-07-31T05:14:58;9.90;;;4.35;;
8831;SDS011;4452;50.756;4.472;2023-07-31T05:17:24;6.03;;;3.47;;
8831;SDS011;4452;50.756;4.472;2023-07-31T05:19:50;7.43;;;3.95;;
8831;SDS011;4452;50.756;4.472;2023-07-31T05:22:15;6.85;;;3.08;;
8831;SDS011;4452;50.756;4.472;2023-07-31T05:24:41;8.48;;;3.92;;
8831;SDS011;4452;50.756;4.472;2023-07-31T05:27:07;11.32;;;4.35;;
8831;SDS011;4452;50.756;4.472;2023-07-31T05:29:32;15.00;;;4.47;;
8831;SDS011;4452;50.756;4.472;2023-07-31T05:31:58;12.05;;;4.72;;
8831;SDS011;4452;50.756;4.472;2023-07-31T05:34:24;12.57;;;4.30;;
8831;SDS011;4452;50.756;4.472;2023-07-31T05:36:49;15.07;;;4.95;;
8831;SDS011;4452;50.756;4.472;2023-07-31T05:39:15;12.00;;;4.18;;
8831;SDS011;4452;50.756;4.472;2023-07-31T05:41:40;8.43;;;4.63;;
8831;SDS011;4452;50.756;4.472;2023-07-31T05:44:06;9.60;;;4.07;;
8831;SDS011;4452;50.756;4.472;2023-07-31T05:46:32;9.45;;;4.05;;
8831;SDS011;4452;50.756;4.472;2023-07-31T05:48:58;9.43;;;4.63;;
8831;SDS011;4452;50.756;4.472;2023-07-31T05:51:25;9.60;;;4.32;;
8831;SDS011;4452;50.756;4.472;2023-07-31T05:53:52;8.77;;;3.47;;
8831;SDS011;4452;50.756;4.472;2023-07-31T05:56:18;8.18;;;4.30;;
8831;SDS011;4452;50.756;4.472;2023-07-31T05:58:44;14.60;;;5.25;;
8831;SDS011;4452;50.756;4.472;2023-07-31T06:01:09;10.02;;;4.78;;
8831;SDS011;4452;50.756;4.472;2023-07-31T06:03:35;10.02;;;4.15;;
8831;SDS011;4452;50.756;4.472;2023-07-31T06:06:01;14.25;;;4.78;;
8831;SDS011;4452;50.756;4.472;2023-07-31T06:08:26;12.02;;;5.35;;
8831;SDS011;4452;50.756;4.472;2023-07-31T06:10:52;6.93;;;3.63;;
8831;SDS011;4452;50.756;4.472;2023-07-31T06:13:18;12.80;;;4.20;;
8831;SDS011;4452;50.756;4.472;2023-07-31T06:15:43;11.65;;;4.00;;
8831;SDS011;4452;50.756;4.472;2023-07-31T06:18:09;10.95;;;4.30;;
8831;SDS011;4452;50.756;4.472;2023-07-31T06:20:35;9.18;;;4.07;;
8831;SDS011;4452;50.756;4.472;2023-07-31T06:23:01;6.55;;;3.78;;
8831;SDS011;4452;50.756;4.472;2023-07-31T06:25:28;7.38;;;4.32;;
8831;SDS011;4452;50.756;4.472;2023-07-31T06:27:54;13.02;;;5.47;;
8831;SDS011;4452;50.756;4.472;2023-07-31T06:30:19;10.48;;;4.22;;
8831;SDS011;4452;50.756;4.472;2023-07-31T06:32:45;7.07;;;4.07;;
8831;SDS011;4452;50.756;4.472;2023-07-31T06:35:10;8.82;;;4.38;;
8831;SDS011;4452;50.756;4.472;2023-07-31T06:37:36;5.75;;;3.25;;
8831;SDS011;4452;50.756;4.472;2023-07-31T06:40:05;13.70;;;4.75;;
8831;SDS011;4452;50.756;4.472;2023-07-31T06:42:32;11.85;;;4.15;;
8831;SDS011;4452;50.756;4.472;2023-07-31T06:44:58;12.13;;;4.88;;
8831;SDS011;4452;50.756;4.472;2023-07-31T06:47:24;10.43;;;3.75;;
8831;SDS011;4452;50.756;4.472;2023-07-31T06:49:49;10.75;;;4.05;;
8831;SDS011;4452;50.756;4.472;2023-07-31T06:52:15;7.25;;;3.90;;
8831;SDS011;4452;50.756;4.472;2023-07-31T06:54:41;11.60;;;3.78;;
8831;SDS011;4452;50.756;4.472;2023-07-31T06:57:06;10.88;;;3.33;;
8831;SDS011;4452;50.756;4.472;2023-07-31T06:59:33;10.23;;;3.88;;
8831;SDS011;4452;50.756;4.472;2023-07-31T07:01:58;7.15;;;3.55;;
8831;SDS011;4452;50.756;4.472;2023-07-31T07:04:24;6.88;;;3.60;;
8831;SDS011;4452;50.756;4.472;2023-07-31T07:06:50;5.32;;;2.67;;
8831;SDS011;4452;50.756;4.472;2023-07-31T07:09:15;8.07;;;3.60;;
8831;SDS011;4452;50.756;4.472;2023-07-31T07:11:41;10.02;;;3.60;;
8831;SDS011;4452;50.756;4.472;2023-07-31T07:14:09;9.32;;;4.10;;
8831;SDS011;4452;50.756;4.472;2023-07-31T07:16:35;7.75;;;2.75;;
8831;SDS011;4452;50.756;4.472;2023-07-31T07:19:01;9.57;;;4.18;;
8831;SDS011;4452;50.756;4.472;2023-07-31T07:21:26;5.72;;;2.88;;
8831;SDS011;4452;50.756;4.472;2023-07-31T07:23:52;8.60;;;4.15;;
8831;SDS011;4452;50.756;4.472;2023-07-31T07:26:17;11.13;;;4.35;;
8831;SDS011;4452;50.756;4.472;2023-07-31T07:28:43;4.30;;;3.22;;
8831;SDS011;4452;50.756;4.472;2023-07-31T07:31:09;7.78;;;2.92;;
8831;SDS011;4452;50.756;4.472;2023-07-31T07:33:42;5.43;;;2.88;;
8831;SDS011;4452;50.756;4.472;2023-07-31T07:36:10;8.50;;;3.10;;
8831;SDS011;4452;50.756;4.472;2023-07-31T07:38:39;6.72;;;3.40;;
8831;SDS011;4452;50.756;4.472;2023-07-31T07:41:07;12.07;;;3.83;;
8831;SDS011;4452;50.756;4.472;2023-07-31T07:43:36;5.93;;;3.50;;
8831;SDS011;4452;50.756;4.472;2023-07-31T07:46:07;8.13;;;3.03;;
8831;SDS011;4452;50.756;4.472;2023-07-31T07:48:33;5.93;;;3.33;;
8831;SDS011;4452;50.756;4.472;2023-07-31T07:50:58;6.85;;;3.42;;
8831;SDS011;4452;50.756;4.472;2023-07-31T07:53:24;6.15;;;2.95;;
8831;SDS011;4452;50.756;4.472;2023-07-31T07:55:50;11.60;;;3.28;;
8831;SDS011;4452;50.756;4.472;2023-07-31T07:58:15;6.20;;;2.97;;
8831;SDS011;4452;50.756;4.472;2023-07-31T08:00:41;6.95;;;3.35;;
8831;SDS011;4452;50.756;4.472;2023-07-31T08:03:07;7.35;;;2.97;;
8831;SDS011;4452;50.756;4.472;2023-07-31T08:05:32;10.00;;;3.53;;
8831;SDS011;4452;50.756;4.472;2023-07-31T08:07:59;6.93;;;2.95;;
8831;SDS011;4452;50.756;4.472;2023-07-31T08:10:25;5.50;;;3.33;;
8831;SDS011;4452;50.756;4.472;2023-07-31T08:12:50;8.00;;;3.38;;
8831;SDS011;4452;50.756;4.472;2023-07-31T08:15:16;9.05;;;3.60;;
8831;SDS011;4452;50.756;4.472;2023-07-31T08:17:42;7.97;;;3.05;;
8831;SDS011;4452;50.756;4.472;2023-07-31T08:20:07;6.97;;;2.67;;
8831;SDS011;4452;50.756;4.472;2023-07-31T08:22:34;5.35;;;3.28;;
8831;SDS011;4452;50.756;4.472;2023-07-31T08:25:00;5.65;;;3.15;;
8831;SDS011;4452;50.756;4.472;2023-07-31T08:27:25;5.07;;;3.10;;
8831;SDS011;4452;50.756;4.472;2023-07-31T08:29:51;5.00;;;2.83;;
8831;SDS011;4452;50.756;4.472;2023-07-31T08:32:17;9.10;;;3.45;;
8831;SDS011;4452;50.756;4.472;2023-07-31T08:34:43;8.82;;;3.33;;
8831;SDS011;4452;50.756;4.472;2023-07-31T08:37:09;9.65;;;3.92;;
8831;SDS011;4452;50.756;4.472;2023-07-31T08:39:36;8.07;;;3.72;;
8831;SDS011;4452;50.756;4.472;2023-07-31T08:42:07;6.93;;;3.25;;
8831;SDS011;4452;50.756;4.472;2023-07-31T08:44:34;5.85;;;2.97;;
8831;SDS011;4452;50.756;4.472;2023-07-31T08:47:00;3.63;;;2.55;;
8831;SDS011;4452;50.756;4.472;2023-07-31T08:49:26;6.32;;;3.17;;
8831;SDS011;4452;50.756;4.472;2023-07-31T08:51:54;6.35;;;2.88;;
8831;SDS011;4452;50.756;4.472;2023-07-31T08:54:20;5.68;;;2.60;;
8831;SDS011;4452;50.756;4.472;2023-07-31T08:56:46;10.13;;;3.53;;
8831;SDS011;4452;50.756;4.472;2023-07-31T08:59:12;2.65;;;2.38;;
8831;SDS011;4452;50.756;4.472;2023-07-31T09:01:43;8.73;;;3.40;;
8831;SDS011;4452;50.756;4.472;2023-07-31T09:04:13;3.40;;;2.45;;
8831;SDS011;4452;50.756;4.472;2023-07-31T09:06:41;3.45;;;2.60;;
8831;SDS011;4452;50.756;4.472;2023-07-31T09:09:08;7.47;;;3.13;;
8831;SDS011;4452;50.756;4.472;2023-07-31T09:11:34;5.63;;;3.30;;
8831;SDS011;4452;50.756;4.472;2023-07-31T09:14:00;6.50;;;2.97;;
8831;SDS011;4452;50.756;4.472;2023-07-31T09:16:30;8.32;;;3.13;;
8831;SDS011;4452;50.756;4.472;2023-07-31T09:18:58;9.18;;;3.38;;
8831;SDS011;4452;50.756;4.472;2023-07-31T09:21:26;8.05;;;3.40;;
8831;SDS011;4452;50.756;4.472;2023-07-31T09:23:53;7.72;;;3.80;;
8831;SDS011;4452;50.756;4.472;2023-07-31T09:26:35;8.20;;;3.10;;
8831;SDS011;4452;50.756;4.472;2023-07-31T09:29:04;5.32;;;3.50;;
8831;SDS011;4452;50.756;4.472;2023-07-31T09:31:39;9.80;;;4.28;;
8831;SDS011;4452;50.756;4.472;2023-07-31T09:34:06;5.93;;;3.33;;
8831;SDS011;4452;50.756;4.472;2023-07-31T09:36:32;11.90;;;4.10;;
8831;SDS011;4452;50.756;4.472;2023-07-31T09:39:04;7.13;;;3.97;;
8831;SDS011;4452;50.756;4.472;2023-07-31T09:41:30;6.63;;;3.25;;
8831;SDS011;4452;50.756;4.472;2023-07-31T09:43:56;9.15;;;3.70;;
8831;SDS011;4452;50.756;4.472;2023-07-31T09:46:22;6.25;;;3.70;;
8831;SDS011;4452;50.756;4.472;2023-07-31T09:48:52;7.15;;;4.13;;
8831;SDS011;4452;50.756;4.472;2023-07-31T09:51:25;10.25;;;4.13;;
8831;SDS011;4452;50.756;4.472;2023-07-31T09:53:52;7.20;;;4.22;;
8831;SDS011;4452;50.756;4.472;2023-07-31T09:56:17;13.00;;;4.63;;
8831;SDS011;4452;50.756;4.472;2023-07-31T09:58:46;8.80;;;4.25;;
8831;SDS011;4452;50.756;4.472;2023-07-31T10:01:12;8.68;;;4.78;;
8831;SDS011;4452;50.756;4.472;2023-07-31T10:03:39;8.02;;;4.32;;
8831;SDS011;4452;50.756;4.472;2023-07-31T10:06:07;9.63;;;4.15;;
8831;SDS011;4452;50.756;4.472;2023-07-31T10:08:34;5.90;;;3.30;;
8831;SDS011;4452;50.756;4.472;2023-07-31T10:11:02;9.75;;;5.18;;
8831;SDS011;4452;50.756;4.472;2023-07-31T10:13:31;5.47;;;3.58;;
8831;SDS011;4452;50.756;4.472;2023-07-31T10:15:58;13.75;;;3.90;;
8831;SDS011;4452;50.756;4.472;2023-07-31T10:18:26;11.13;;;4.50;;
8831;SDS011;4452;50.756;4.472;2023-07-31T10:20:52;8.63;;;4.93;;
8831;SDS011;4452;50.756;4.472;2023-07-31T10:23:19;10.85;;;5.28;;
8831;SDS011;4452;50.756;4.472;2023-07-31T10:25:45;8.65;;;4.40;;
8831;SDS011;4452;50.756;4.472;2023-07-31T10:28:12;8.32;;;4.10;;
8831;SDS011;4452;50.756;4.472;2023-07-31T10:30:38;9.48;;;4.80;;
8831;SDS011;4452;50.756;4.472;2023-07-31T10:33:05;8.60;;;5.00;;
8831;SDS011;4452;50.756;4.472;2023-07-31T10:35:31;8.75;;;4.45;;
8831;SDS011;4452;50.756;4.472;2023-07-31T10:38:05;8.93;;;5.10;;
8831;SDS011;4452;50.756;4.472;2023-07-31T10:40:36;9.43;;;4.85;;
8831;SDS011;4452;50.756;4.472;2023-07-31T10:43:02;7.53;;;3.90;;
8831;SDS011;4452;50.756;4.472;2023-07-31T10:45:32;6.75;;;4.15;;
8831;SDS011;4452;50.756;4.472;2023-07-31T10:47:58;12.23;;;4.93;;
8831;SDS011;4452;50.756;4.472;2023-07-31T10:50:26;14.52;;;4.60;;
8831;SDS011;4452;50.756;4.472;2023-07-31T10:52:53;9.10;;;4.88;;
8831;SDS011;4452;50.756;4.472;2023-07-31T10:55:27;11.52;;;4.38;;
8831;SDS011;4452;50.756;4.472;2023-07-31T10:57:54;10.15;;;4.53;;
8831;SDS011;4452;50.756;4.472;2023-07-31T11:00:27;4.75;;;3.55;;
8831;SDS011;4452;50.756;4.472;2023-07-31T11:02:57;13.48;;;4.60;;
8831;SDS011;4452;50.756;4.472;2023-07-31T11:08:20;11.02;;;5.10;;
8831;SDS011;4452;50.756;4.472;2023-07-31T11:10:50;11.23;;;4.80;;
8831;SDS011;4452;50.756;4.472;2023-07-31T11:13:30;12.18;;;4.88;;
8831;SDS011;4452;50.756;4.472;2023-07-31T11:15:57;9.70;;;4.90;;
8831;SDS011;4452;50.756;4.472;2023-07-31T11:18:23;11.45;;;3.95;;
8831;SDS011;4452;50.756;4.472;2023-07-31T11:20:49;9.23;;;4.93;;
8831;SDS011;4452;50.756;4.472;2023-07-31T11:23:16;7.25;;;4.47;;
8831;SDS011;4452;50.756;4.472;2023-07-31T11:25:42;9.02;;;4.45;;
8831;SDS011;4452;50.756;4.472;2023-07-31T11:28:10;9.20;;;4.20;;
8831;SDS011;4452;50.756;4.472;2023-07-31T11:30:37;11.25;;;4.28;;
8831;SDS011;4452;50.756;4.472;2023-07-31T11:33:04;10.98;;;4.57;;
8831;SDS011;4452;50.756;4.472;2023-07-31T11:35:32;11.07;;;5.07;;
8831;SDS011;4452;50.756;4.472;2023-07-31T11:37:59;9.60;;;4.38;;
8831;SDS011;4452;50.756;4.472;2023-07-31T11:40:25;9.05;;;4.38;;
8831;SDS011;4452;50.756;4.472;2023-07-31T11:43:04;11.25;;;3.90;;
8831;SDS011;4452;50.756;4.472;2023-07-31T11:45:30;11.23;;;4.28;;
8831;SDS011;4452;50.756;4.472;2023-07-31T11:47:57;14.25;;;5.05;;
8831;SDS011;4452;50.756;4.472;2023-07-31T11:50:24;9.43;;;4.63;;
8831;SDS011;4452;50.756;4.472;2023-07-31T11:52:59;11.82;;;4.65;;
8831;SDS011;4452;50.756;4.472;2023-07-31T11:55:28;6.68;;;3.58;;
8831;SDS011;4452;50.756;4.472;2023-07-31T11:57:55;9.05;;;4.30;;
8831;SDS011;4452;50.756;4.472;2023-07-31T12:00:24;8.15;;;4.93;;
8831;SDS011;4452;50.756;4.472;2023-07-31T12:02:51;10.63;;;4.03;;
8831;SDS011;4452;50.756;4.472;2023-07-31T12:05:17;4.72;;;3.85;;
8831;SDS011;4452;50.756;4.472;2023-07-31T12:07:47;7.05;;;4.78;;
8831;SDS011;4452;50.756;4.472;2023-07-31T12:12:57;7.03;;;4.57;;
8831;SDS011;4452;50.756;4.472;2023-07-31T12:15:32;8.20;;;5.03;;
8831;SDS011;4452;50.756;4.472;2023-07-31T12:17:58;11.15;;;5.15;;
8831;SDS011;4452;50.756;4.472;2023-07-31T12:20:24;11.20;;;5.22;;
8831;SDS011;4452;50.756;4.472;2023-07-31T12:22:50;6.72;;;4.32;;
8831;SDS011;4452;50.756;4.472;2023-07-31T12:25:16;9.10;;;4.28;;
8831;SDS011;4452;50.756;4.472;2023-07-31T12:27:45;12.30;;;4.88;;
8831;SDS011;4452;50.756;4.472;2023-07-31T12:30:33;8.20;;;4.38;;
8831;SDS011;4452;50.756;4.472;2023-07-31T12:33:06;5.75;;;4.20;;
8831;SDS011;4452;50.756;4.472;2023-07-31T12:35:38;10.30;;;4.80;;
8831;SDS011;4452;50.756;4.472;2023-07-31T12:38:05;7.70;;;4.65;;
8831;SDS011;4452;50.756;4.472;2023-07-31T12:40:31;9.88;;;4.38;;
8831;SDS011;4452;50.756;4.472;2023-07-31T12:42:58;11.88;;;5.05;;
8831;SDS011;4452;50.756;4.472;2023-07-31T12:45:27;12.70;;;5.90;;
8831;SDS011;4452;50.756;4.472;2023-07-31T12:47:52;17.23;;;5.45;;
8831;SDS011;4452;50.756;4.472;2023-07-31T12:50:18;9.27;;;4.65;;
8831;SDS011;4452;50.756;4.472;2023-07-31T12:52:43;6.88;;;4.63;;
8831;SDS011;4452;50.756;4.472;2023-07-31T12:55:09;11.82;;;4.63;;
8831;SDS011;4452;50.756;4.472;2023-07-31T12:57:36;10.82;;;4.68;;
8831;SDS011;4452;50.756;4.472;2023-07-31T13:00:02;6.68;;;4.60;;
8831;SDS011;4452;50.756;4.472;2023-07-31T13:02:28;6.82;;;4.57;;
8831;SDS011;4452;50.756;4.472;2023-07-31T13:04:54;10.20;;;4.43;;
8831;SDS011;4452;50.756;4.472;2023-07-31T13:07:21;12.23;;;4.97;;
8831;SDS011;4452;50.756;4.472;2023-07-31T13:09:48;9.00;;;4.88;;
8831;SDS011;4452;50.756;4.472;2023-07-31T13:12:14;11.43;;;4.97;;
8831;SDS011;4452;50.756;4.472;2023-07-31T13:14:39;9.35;;;4.93;;
8831;SDS011;4452;50.756;4.472;2023-07-31T13:17:05;11.13;;;4.68;;
8831;SDS011;4452;50.756;4.472;2023-07-31T13:19:31;10.90;;;4.38;;
8831;SDS011;4452;50.756;4.472;2023-07-31T13:21:56;14.05;;;4.38;;
8831;SDS011;4452;50.756;4.472;2023-07-31T13:24:22;7.22;;;3.85;;
8831;SDS011;4452;50.756;4.472;2023-07-31T13:26:48;7.28;;;3.50;;
8831;SDS011;4452;50.756;4.472;2023-07-31T13:29:13;10.80;;;4.28;;
8831;SDS011;4452;50.756;4.472;2023-07-31T13:31:39;8.35;;;3.58;;
8831;SDS011;4452;50.756;4.472;2023-07-31T13:34:05;12.15;;;3.92;;
8831;SDS011;4452;50.756;4.472;2023-07-31T13:36:30;3.38;;;2.42;;
8831;SDS011;4452;50.756;4.472;2023-07-31T13:38:56;7.22;;;3.13;;
8831;SDS011;4452;50.756;4.472;2023-07-31T13:41:22;9.73;;;3.42;;
8831;SDS011;4452;50.756;4.472;2023-07-31T13:43:47;7.40;;;3.47;;
8831;SDS011;4452;50.756;4.472;2023-07-31T13:46:13;5.07;;;3.33;;
8831;SDS011;4452;50.756;4.472;2023-07-31T13:48:38;6.93;;;3.17;;
8831;SDS011;4452;50.756;4.472;2023-07-31T13:51:04;8.77;;;3.78;;
8831;SDS011;4452;50.756;4.472;2023-07-31T13:53:30;11.30;;;3.38;;
8831;SDS011;4452;50.756;4.472;2023-07-31T13:55:56;9.02;;;3.72;;
8831;SDS011;4452;50.756;4.472;2023-07-31T13:58:21;8.00;;;4.18;;
8831;SDS011;4452;50.756;4.472;2023-07-31T14:00:47;7.13;;;3.88;;
8831;SDS011;4452;50.756;4.472;2023-07-31T14:03:13;6.22;;;3.78;;
8831;SDS011;4452;50.756;4.472;2023-07-31T14:05:38;6.68;;;3.25;;
8831;SDS011;4452;50.756;4.472;2023-07-31T14:08:04;8.95;;;4.38;;
8831;SDS011;4452;50.756;4.472;2023-07-31T14:10:30;9.40;;;4.40;;
8831;SDS011;4452;50.756;4.472;2023-07-31T14:12:55;5.93;;;3.15;;
8831;SDS011;4452;50.756;4.472;2023-07-31T14:15:21;5.63;;;3.70;;
8831;SDS011;4452;50.756;4.472;2023-07-31T14:17:46;9.05;;;3.72;;
8831;SDS011;4452;50.756;4.472;2023-07-31T14:20:12;9.27;;;3.85;;
8831;SDS011;4452;50.756;4.472;2023-07-31T14:22:38;6.07;;;3.67;;
8831;SDS011;4452;50.756;4.472;2023-07-31T14:25:03;8.32;;;3.78;;
8831;SDS011;4452;50.756;4.472;2023-07-31T14:27:29;10.15;;;4.00;;
8831;SDS011;4452;50.756;4.472;2023-07-31T14:29:55;6.60;;;4.40;;
8831;SDS011;4452;50.756;4.472;2023-07-31T14:32:24;3.10;;;2.75;;
8831;SDS011;4452;50.756;4.472;2023-07-31T14:34:51;6.78;;;3.97;;
8831;SDS011;4452;50.756;4.472;2023-07-31T14:37:18;6.32;;;3.17;;
8831;SDS011;4452;50.756;4.472;2023-07-31T14:39:46;5.45;;;3.70;;
8831;SDS011;4452;50.756;4.472;2023-07-31T14:42:14;8.35;;;3.28;;
8831;SDS011;4452;50.756;4.472;2023-07-31T14:44:44;6.97;;;3.45;;
8831;SDS011;4452;50.756;4.472;2023-07-31T14:47:13;5.80;;;2.97;;
8831;SDS011;4452;50.756;4.472;2023-07-31T14:49:40;4.90;;;3.38;;
8831;SDS011;4452;50.756;4.472;2023-07-31T14:52:06;3.30;;;2.38;;
8831;SDS011;4452;50.756;4.472;2023-07-31T14:54:32;3.70;;;2.55;;
8831;SDS011;4452;50.756;4.472;2023-07-31T14:56:57;4.30;;;2.85;;
8831;SDS011;4452;50.756;4.472;2023-07-31T14:59:23;4.50;;;2.92;;
8831;SDS011;4452;50.756;4.472;2023-07-31T15:01:49;9.57;;;3.35;;
8831;SDS011;4452;50.756;4.472;2023-07-31T15:04:14;3.97;;;2.50;;
8831;SDS011;4452;50.756;4.472;2023-07-31T15:06:40;9.27;;;3.10;;
8831;SDS011;4452;50.756;4.472;2023-07-31T15:09:06;5.72;;;2.80;;
8831;SDS011;4452;50.756;4.472;2023-07-31T15:11:34;3.85;;;3.33;;
8831;SDS011;4452;50.756;4.472;2023-07-31T15:14:02;2.85;;;1.92;;
8831;SDS011;4452;50.756;4.472;2023-07-31T15:16:32;4.00;;;2.35;;
8831;SDS011;4452;50.756;4.472;2023-07-31T15:19:00;3.05;;;1.85;;
8831;SDS011;4452;50.756;4.472;2023-07-31T15:21:25;2.40;;;1.75;;